Time;durP1;ratioP1;P1;durP2;ratioP2;P2;SDS_P1;SDS_P2;PMS_P1;PMS_P2;Temp;Humidity;BMP_temperature;BMP_pressure;BME280_temperature;BME280_humidity;BME280_pressure;Samples;Min_cycle;Max_cycle;Signal;HPM_P1;HPM_P2
2022/08/04 00:00:32;;;;;;;2.25;1.20;;;26.70;56.60;;;;;;4929564;28;20154;-84
2022/08/04 00:03:08;;;;;;;1.88;1.17;;;26.60;55.60;;;;;;4964389;28;20023;-83
2022/08/04 00:05:46;;;;;;;2.45;1.20;;;26.60;56.30;;;;;;4965806;28;20029;-83
2022/08/04 00:08:30;;;;;;;2.80;1.30;;;26.50;55.90;;;;;;4944207;28;20114;-83
2022/08/04 00:10:59;;;;;;;3.13;1.30;;;26.40;57.70;;;;;;4965372;28;20280;-83
2022/08/04 00:13:26;;;;;;;2.60;1.10;;;26.40;56.60;;;;;;4949385;28;20452;-83
2022/08/04 00:15:56;;;;;;;2.65;1.20;;;26.30;56.40;;;;;;4952418;28;20117;-83
2022/08/04 00:18:48;;;;;;;2.35;1.25;;;26.30;56.50;;;;;;4957265;28;20281;-83
2022/08/04 00:21:17;;;;;;;2.07;1.20;;;26.20;58.10;;;;;;4939620;28;20240;-83
2022/08/04 00:23:44;;;;;;;2.03;1.40;;;26.20;56.70;;;;;;4939900;28;20057;-83
2022/08/04 00:26:10;;;;;;;1.65;1.35;;;26.10;56.80;;;;;;4974533;28;20035;-83
2022/08/04 00:28:41;;;;;;;1.67;1.20;;;26.00;56.80;;;;;;4950313;28;20093;-83
2022/08/04 00:31:09;;;;;;;2.08;1.10;;;25.90;57.10;;;;;;4942321;28;20495;-83
2022/08/04 00:33:37;;;;;;;1.70;1.20;;;25.90;57.60;;;;;;4962100;28;20023;-83
2022/08/04 00:36:03;;;;;;;2.50;1.48;;;25.80;57.60;;;;;;4949369;28;20089;-83
2022/08/04 00:38:29;;;;;;;3.13;1.30;;;25.80;57.60;;;;;;4938241;28;20038;-83
2022/08/04 00:41:29;;;;;;;2.20;1.30;;;25.70;57.70;;;;;;4957354;28;20070;-83
2022/08/04 00:44:01;;;;;;;2.83;1.30;;;25.70;59.50;;;;;;4951313;28;20058;-83
2022/08/04 00:46:44;;;;;;;2.83;1.20;;;25.60;59.00;;;;;;4949888;28;20276;-83
2022/08/04 00:49:28;;;;;;;2.90;1.30;;;25.50;59.40;;;;;;4933567;28;20517;-84
2022/08/04 00:52:25;;;;;;;2.58;1.15;;;25.50;58.20;;;;;;4944068;28;20035;-84
2022/08/04 00:55:03;;;;;;;3.97;1.40;;;25.40;60.10;;;;;;4954006;28;20058;-83
2022/08/04 00:58:02;;;;;;;2.50;1.30;;;25.40;60.00;;;;;;4955780;28;20483;-83
2022/08/04 01:00:36;;;;;;;2.20;1.20;;;25.30;60.50;;;;;;4950794;28;20692;-83
2022/08/04 01:03:50;;;;;;;2.25;1.30;;;25.30;59.40;;;;;;4949874;28;20023;-83
2022/08/04 01:06:16;;;;;;;2.17;1.30;;;25.20;60.90;;;;;;4953827;28;20245;-83
2022/08/04 01:09:36;;;;;;;2.40;1.30;;;25.20;58.80;;;;;;4935136;28;20038;-83
2022/08/04 01:12:27;;;;;;;2.45;1.30;;;25.10;60.70;;;;;;4921400;28;20419;-83
2022/08/04 01:15:04;;;;;;;3.42;1.30;;;25.10;60.60;;;;;;4960795;28;20038;-83
2022/08/04 01:18:15;;;;;;;1.80;1.25;;;25.10;60.00;;;;;;4954452;28;20086;-83
2022/08/04 01:21:21;;;;;;;2.20;1.20;;;25.00;61.10;;;;;;4900726;29;20112;-83
2022/08/04 01:24:03;;;;;;;2.05;1.30;;;25.00;60.10;;;;;;4860557;29;20728;-83
2022/08/04 01:27:01;;;;;;;3.72;1.30;;;24.90;60.00;;;;;;4944855;28;20050;-83
2022/08/04 01:29:32;;;;;;;2.17;1.30;;;24.80;61.40;;;;;;4956799;28;20224;-83
2022/08/04 01:32:22;;;;;;;2.10;1.25;;;24.80;60.00;;;;;;4946547;28;20420;-83
2022/08/04 01:35:08;;;;;;;2.13;1.30;;;24.70;60.50;;;;;;4930531;28;20135;-83
2022/08/04 01:37:52;;;;;;;2.05;1.30;;;24.70;61.00;;;;;;4956997;28;20027;-83
2022/08/04 01:40:20;;;;;;;2.47;1.30;;;24.70;61.80;;;;;;4956148;28;20090;-83
2022/08/04 01:42:51;;;;;;;1.75;1.30;;;24.60;60.20;;;;;;4939423;28;20042;-83
2022/08/04 01:45:16;;;;;;;1.98;1.20;;;24.60;60.70;;;;;;4964890;28;20046;-83
2022/08/04 01:47:49;;;;;;;3.50;1.57;;;24.50;60.40;;;;;;4945626;28;20331;-83
2022/08/04 01:50:15;;;;;;;3.95;1.40;;;24.50;61.70;;;;;;4955676;28;20034;-83
2022/08/04 01:52:43;;;;;;;1.63;1.40;;;24.50;60.90;;;;;;4957127;28;20027;-83
2022/08/04 01:55:11;;;;;;;4.47;1.95;;;24.50;61.30;;;;;;4952309;28;20479;-83
2022/08/04 01:57:41;;;;;;;3.87;1.30;;;24.50;61.30;;;;;;4950939;28;20150;-83
2022/08/04 02:00:08;;;;;;;3.03;1.50;;;24.40;61.80;;;;;;4941828;28;20125;-83
2022/08/04 02:02:34;;;;;;;2.50;1.30;;;24.40;61.40;;;;;;4940021;28;20038;-83
2022/08/04 02:04:59;;;;;;;4.30;1.60;;;24.30;61.40;;;;;;4953782;28;20018;-83
2022/08/04 02:07:39;;;;;;;2.72;1.40;;;24.30;61.70;;;;;;4963816;28;20070;-83
2022/08/04 02:10:10;;;;;;;2.60;1.38;;;24.30;62.70;;;;;;4950200;28;20023;-83
2022/08/04 02:13:07;;;;;;;3.78;1.60;;;24.30;62.20;;;;;;4941575;28;20454;-83
2022/08/04 02:15:40;;;;;;;2.37;1.40;;;24.30;63.80;;;;;;4961022;28;20066;-83
2022/08/04 02:18:20;;;;;;;3.95;1.60;;;24.20;61.80;;;;;;4942673;28;20228;-83
2022/08/04 02:20:53;;;;;;;1.88;1.50;;;24.20;62.50;;;;;;4953463;28;20466;-83
2022/08/04 02:23:29;;;;;;;2.70;1.60;;;24.20;62.40;;;;;;4950775;28;20218;-82
2022/08/04 02:25:59;;;;;;;3.85;1.70;;;24.10;63.30;;;;;;4930289;28;20043;-84
2022/08/04 02:28:50;;;;;;;2.63;1.60;;;24.10;62.50;;;;;;4961330;28;20026;-83
2022/08/04 02:31:25;;;;;;;3.58;1.60;;;24.10;64.60;;;;;;4958346;28;20030;-83
2022/08/04 02:34:17;;;;;;;2.40;1.45;;;24.10;63.10;;;;;;4939376;28;20023;-83
2022/08/04 02:36:44;;;;;;;2.63;1.35;;;24.00;64.70;;;;;;4940475;28;20050;-83
2022/08/04 02:39:11;;;;;;;2.28;1.40;;;24.00;62.50;;;;;;4932805;28;20287;-83
2022/08/04 02:41:38;;;;;;;3.50;1.43;;;24.00;62.70;;;;;;4947383;28;20085;-83
2022/08/04 02:44:07;;;;;;;2.13;1.27;;;23.90;62.70;;;;;;4953310;28;20333;-83
2022/08/04 02:46:34;;;;;;;3.35;1.50;;;23.90;62.90;;;;;;4962665;28;20015;-83
2022/08/04 02:49:05;;;;;;;2.63;1.40;;;23.90;63.10;;;;;;4940190;28;20054;-83
2022/08/04 02:51:35;;;;;;;3.58;1.55;;;23.90;63.60;;;;;;4947918;28;20023;-83
2022/08/04 02:54:03;;;;;;;1.83;1.33;;;23.80;63.10;;;;;;4954180;28;20193;-83
2022/08/04 02:56:31;;;;;;;2.30;1.50;;;23.80;63.20;;;;;;4944355;28;20042;-83
2022/08/04 02:59:03;;;;;;;2.45;1.40;;;23.80;63.20;;;;;;4935172;28;20031;-83
2022/08/04 03:01:30;;;;;;;2.00;1.20;;;23.80;63.90;;;;;;4959125;28;20039;-83
2022/08/04 03:04:03;;;;;;;2.53;1.48;;;23.70;63.20;;;;;;4951766;28;20061;-83
2022/08/04 03:07:06;;;;;;;2.87;1.43;;;23.60;64.30;;;;;;4944567;28;20619;-83
2022/08/04 03:10:04;;;;;;;2.92;1.40;;;23.60;65.20;;;;;;4957265;28;20037;-83
2022/08/04 03:12:58;;;;;;;3.15;1.40;;;23.50;65.40;;;;;;4953729;28;20402;-83
2022/08/04 03:15:52;;;;;;;2.20;1.30;;;23.50;64.80;;;;;;4970059;28;20023;-83
2022/08/04 03:18:56;;;;;;;2.55;1.35;;;23.40;65.00;;;;;;4943190;28;20291;-84
2022/08/04 03:21:46;;;;;;;1.80;1.43;;;23.40;65.40;;;;;;4952070;28;20030;-83
2022/08/04 03:24:15;;;;;;;2.47;1.40;;;23.30;64.60;;;;;;4953967;28;20133;-83
2022/08/04 03:27:09;;;;;;;2.35;1.50;;;23.30;63.80;;;;;;4942825;28;20582;-83
2022/08/04 03:29:54;;;;;;;1.75;1.20;;;23.30;65.90;;;;;;4924128;28;20034;-83
2022/08/04 03:32:41;;;;;;;2.65;1.38;;;23.20;65.50;;;;;;4969203;28;20027;-83
2022/08/04 03:35:50;;;;;;;3.43;1.50;;;23.20;65.90;;;;;;4952904;28;20031;-83
2022/08/04 03:38:37;;;;;;;2.10;1.20;;;23.10;65.90;;;;;;4949935;28;20207;-83
2022/08/04 03:41:15;;;;;;;3.80;1.35;;;23.20;64.60;;;;;;4955659;28;20264;-83
2022/08/04 03:44:18;;;;;;;1.77;1.20;;;23.10;65.90;;;;;;4926945;28;20054;-83
2022/08/04 03:46:53;;;;;;;2.92;1.30;;;23.10;66.20;;;;;;4962739;28;20039;-83
2022/08/04 03:49:53;;;;;;;2.80;1.60;;;23.00;65.40;;;;;;4956689;28;20268;-83
2022/08/04 03:53:08;;;;;;;1.58;1.20;;;23.00;66.80;;;;;;4949521;28;20249;-83
2022/08/04 03:55:42;;;;;;;2.03;1.38;;;23.00;66.70;;;;;;4959748;28;20665;-83
2022/08/04 03:58:26;;;;;;;2.40;1.50;;;22.90;65.30;;;;;;4931081;28;20060;-83
2022/08/04 04:01:10;;;;;;;3.65;1.40;;;22.90;65.60;;;;;;4958105;28;20022;-83
2022/08/04 04:04:02;;;;;;;2.30;1.27;;;22.90;65.20;;;;;;4937649;28;20041;-83
2022/08/04 04:06:47;;;;;;;2.88;1.30;;;22.90;67.10;;;;;;4948808;28;20030;-83
2022/08/04 04:09:58;;;;;;;2.45;1.30;;;22.80;67.40;;;;;;4954479;28;20808;-84
2022/08/04 04:12:59;;;;;;;3.03;1.60;;;22.80;66.90;;;;;;4896761;28;20039;-84
2022/08/04 04:15:55;;;;;;;2.10;1.33;;;22.80;67.60;;;;;;4854764;28;20069;-83
2022/08/04 04:18:35;;;;;;;2.67;1.30;;;22.80;67.30;;;;;;4978541;28;20037;-83
2022/08/04 04:21:26;;;;;;;2.72;1.30;;;22.80;67.40;;;;;;4933094;28;20042;-83
2022/08/04 04:24:23;;;;;;;3.78;1.35;;;22.80;67.80;;;;;;4929485;28;20014;-84
2022/08/04 04:27:14;;;;;;;1.90;1.35;;;22.80;67.50;;;;;;4964504;28;20038;-84
2022/08/04 04:29:58;;;;;;;2.10;1.38;;;22.80;68.00;;;;;;4924090;28;20027;-84
2022/08/04 04:33:18;;;;;;;2.50;1.30;;;22.80;68.20;;;;;;4972010;28;20043;-83
2022/08/04 04:35:49;;;;;;;3.13;1.30;;;22.80;68.30;;;;;;4919882;28;20035;-83
2022/08/04 04:38:30;;;;;;;2.92;1.55;;;22.80;67.20;;;;;;4922778;28;20027;-83
2022/08/04 04:41:22;;;;;;;3.03;1.40;;;22.80;67.90;;;;;;4957008;28;20461;-84
2022/08/04 04:44:02;;;;;;;2.53;1.40;;;22.80;67.80;;;;;;4948458;28;20079;-83
2022/08/04 04:46:31;;;;;;;2.70;1.43;;;22.80;68.20;;;;;;4939308;28;20035;-84
2022/08/04 04:49:07;;;;;;;2.47;1.40;;;22.80;67.40;;;;;;4958249;28;20387;-84
2022/08/04 04:51:57;;;;;;;1.95;1.40;;;22.80;67.60;;;;;;4959999;28;20027;-83
2022/08/04 04:54:38;;;;;;;2.90;1.30;;;22.80;68.90;;;;;;4939723;28;20030;-83
2022/08/04 04:57:17;;;;;;;2.03;1.45;;;22.80;68.80;;;;;;4955451;28;20038;-83
2022/08/04 04:59:55;;;;;;;2.90;1.70;;;22.90;67.70;;;;;;4950553;28;20023;-83
2022/08/04 05:02:30;;;;;;;1.35;1.25;;;22.90;68.60;;;;;;4930557;28;20046;-84
2022/08/04 05:04:58;;;;;;;2.47;1.38;;;22.90;69.20;;;;;;4971343;28;20506;-84
2022/08/04 05:07:24;;;;;;;2.05;1.50;;;23.00;68.20;;;;;;4933399;28;20078;-84
2022/08/04 05:10:28;;;;;;;1.90;1.43;;;23.00;67.70;;;;;;4918342;28;20057;-84
2022/08/04 05:13:08;;;;;;;2.20;1.50;;;23.00;67.90;;;;;;4920301;29;20027;-84
2022/08/04 05:15:38;;;;;;;2.72;1.30;;;23.10;69.40;;;;;;4929426;28;20328;-84
2022/08/04 05:18:08;;;;;;;2.95;1.38;;;23.10;68.10;;;;;;4933980;28;20103;-84
2022/08/04 05:20:39;;;;;;;2.58;1.45;;;23.10;68.10;;;;;;4963507;28;20108;-84
2022/08/04 05:23:12;;;;;;;3.03;1.43;;;23.20;68.30;;;;;;4948432;28;20027;-84
2022/08/04 05:26:05;;;;;;;3.78;1.50;;;23.30;68.70;;;;;;4931284;28;20622;-84
2022/08/04 05:28:38;;;;;;;3.55;1.45;;;23.30;69.80;;;;;;4932938;28;20041;-83
2022/08/04 05:31:20;;;;;;;1.75;1.52;;;23.40;68.60;;;;;;4975139;28;20041;-83
2022/08/04 05:34:06;;;;;;;3.25;1.40;;;23.40;70.20;;;;;;4963694;28;20278;-84
2022/08/04 05:36:46;;;;;;;2.13;1.20;;;23.40;69.00;;;;;;4959567;28;20311;-84
2022/08/04 05:39:25;;;;;;;2.90;1.45;;;23.50;69.20;;;;;;4951605;28;20680;-84
2022/08/04 05:41:51;;;;;;;1.88;1.33;;;23.50;69.40;;;;;;4940244;28;20491;-84
2022/08/04 05:44:20;;;;;;;2.20;1.35;;;23.60;68.50;;;;;;4937414;28;20113;-83
2022/08/04 05:46:49;;;;;;;4.10;1.55;;;23.60;68.60;;;;;;4961504;28;20461;-84
2022/08/04 05:49:16;;;;;;;1.93;1.20;;;23.70;68.80;;;;;;4956324;28;20033;-84
2022/08/04 05:51:44;;;;;;;2.35;1.33;;;23.80;68.80;;;;;;4970959;28;20065;-84
2022/08/04 05:54:11;;;;;;;3.05;1.30;;;23.80;68.90;;;;;;4961031;28;20022;-83
2022/08/04 05:56:37;;;;;;;3.05;1.30;;;23.90;68.90;;;;;;4943377;28;20054;-83
2022/08/04 05:59:05;;;;;;;2.42;1.40;;;23.90;69.00;;;;;;4968909;28;20042;-84
2022/08/04 06:01:32;;;;;;;5.10;1.43;;;24.00;69.10;;;;;;4947245;28;20034;-84
2022/08/04 06:04:01;;;;;;;3.03;1.50;;;24.10;69.10;;;;;;4944313;28;20039;-84
2022/08/04 06:06:29;;;;;;;2.38;1.30;;;24.20;69.20;;;;;;4975207;28;20589;-83
2022/08/04 06:08:55;;;;;;;2.65;1.30;;;24.30;69.00;;;;;;4964253;28;20055;-84
2022/08/04 06:11:22;;;;;;;3.33;1.40;;;24.30;68.80;;;;;;4943280;28;20259;-83
2022/08/04 06:13:55;;;;;;;4.07;1.43;;;24.40;68.90;;;;;;4946702;28;20173;-84
2022/08/04 06:16:25;;;;;;;3.70;1.40;;;24.50;69.40;;;;;;4948363;28;20039;-83
2022/08/04 06:18:53;;;;;;;2.58;1.23;;;24.50;69.20;;;;;;4924551;28;20096;-83
2022/08/04 06:21:23;;;;;;;2.17;1.20;;;24.60;69.20;;;;;;4947721;28;20014;-83
2022/08/04 06:23:50;;;;;;;2.33;1.30;;;24.70;69.20;;;;;;4973133;28;20237;-83
2022/08/04 06:26:20;;;;;;;1.67;1.17;;;24.80;69.20;;;;;;4949661;28;20132;-83
2022/08/04 06:28:49;;;;;;;2.30;1.10;;;24.90;69.30;;;;;;4947092;28;20031;-84
2022/08/04 06:32:12;;;;;;;2.53;1.30;;;25.00;69.30;;;;;;4952507;28;20084;-82
2022/08/04 06:34:05;;;;;;;2.70;1.20;;;25.10;69.00;;;;;;4952220;28;20279;-83
2022/08/04 06:36:31;;;;;;;2.40;1.30;;;25.20;68.80;;;;;;4942922;28;20055;-82
2022/08/04 06:38:59;;;;;;;2.83;1.23;;;25.30;68.60;;;;;;4944202;28;20027;-82
2022/08/04 06:41:28;;;;;;;2.78;1.33;;;25.40;68.50;;;;;;4945554;28;20042;-83
2022/08/04 06:43:58;;;;;;;2.25;1.30;;;25.50;68.30;;;;;;4941958;28;20029;-82
2022/08/04 06:46:25;;;;;;;2.85;1.38;;;25.50;68.10;;;;;;4957463;28;20035;-82
2022/08/04 06:48:51;;;;;;;3.15;1.52;;;25.60;68.10;;;;;;4946900;28;20324;-83
2022/08/04 06:51:20;;;;;;;5.20;1.23;;;25.60;68.10;;;;;;4937150;28;20097;-83
2022/08/04 06:53:46;;;;;;;5.82;1.50;;;25.70;68.20;;;;;;4944973;28;20335;-82
2022/08/04 06:56:15;;;;;;;3.13;1.40;;;25.70;68.20;;;;;;4942100;28;20397;-82
2022/08/04 06:58:42;;;;;;;3.50;1.33;;;25.80;68.30;;;;;;4928015;28;20766;-83
2022/08/04 07:01:09;;;;;;;4.57;1.40;;;25.90;68.20;;;;;;4931345;28;20391;-82
2022/08/04 07:03:36;;;;;;;2.63;1.30;;;26.00;68.30;;;;;;4960067;28;20491;-77
2022/08/04 07:06:02;;;;;;;2.50;1.17;;;26.10;68.10;;;;;;4948119;28;20026;-78
2022/08/04 07:08:28;;;;;;;5.57;1.50;;;26.20;67.80;;;;;;4908886;28;20435;-78
2022/08/04 07:10:56;;;;;;;3.40;1.40;;;26.30;67.80;;;;;;4959637;28;20071;-78
2022/08/04 07:13:23;;;;;;;2.45;1.40;;;26.40;68.00;;;;;;4938369;28;20133;-78
2022/08/04 07:15:49;;;;;;;2.67;1.20;;;26.50;68.30;;;;;;4948648;28;20038;-83
2022/08/04 07:18:17;;;;;;;3.83;1.35;;;26.60;68.30;;;;;;4948276;28;20059;-82
2022/08/04 07:20:44;;;;;;;3.80;1.55;;;26.70;68.40;;;;;;4941020;28;20074;-83
2022/08/04 07:23:16;;;;;;;2.78;1.35;;;26.90;68.20;;;;;;4912459;28;20035;-82
2022/08/04 07:25:43;;;;;;;4.45;1.35;;;27.00;68.10;;;;;;4964146;28;20138;-83
2022/08/04 07:28:09;;;;;;;2.97;1.50;;;27.20;68.00;;;;;;4942446;28;20050;-82
2022/08/04 07:30:35;;;;;;;3.97;1.40;;;27.30;67.70;;;;;;4951526;28;20557;-82
2022/08/04 07:33:02;;;;;;;4.85;1.33;;;27.50;67.70;;;;;;4942302;28;20023;-83
2022/08/04 07:35:28;;;;;;;4.43;1.20;;;27.60;67.50;;;;;;4939038;28;20031;-82
2022/08/04 07:37:54;;;;;;;3.20;1.55;;;27.70;67.60;;;;;;4954833;28;20031;-82
2022/08/04 07:40:20;;;;;;;3.03;1.40;;;27.80;67.20;;;;;;4941170;28;20053;-83
2022/08/04 07:42:46;;;;;;;1.73;1.30;;;28.00;67.20;;;;;;4941166;28;20019;-82
2022/08/04 07:45:18;;;;;;;3.47;1.27;;;28.10;67.10;;;;;;4942450;28;20015;-83
2022/08/04 07:47:45;;;;;;;3.13;1.50;;;28.20;66.60;;;;;;4939224;28;20547;-83
2022/08/04 07:50:11;;;;;;;3.10;1.25;;;28.30;67.20;;;;;;4952182;28;20032;-82
2022/08/04 07:52:38;;;;;;;2.97;1.38;;;28.40;66.30;;;;;;4955839;28;20426;-83
2022/08/04 07:55:04;;;;;;;2.35;1.25;;;28.50;66.20;;;;;;4928212;28;20451;-83
2022/08/04 07:57:30;;;;;;;2.20;1.30;;;28.60;66.40;;;;;;4948731;28;20423;-82
2022/08/04 07:59:56;;;;;;;3.93;1.30;;;28.80;66.40;;;;;;4945555;28;20019;-82
2022/08/04 08:02:22;;;;;;;2.88;1.23;;;28.90;66.20;;;;;;4926216;28;20051;-82
2022/08/04 08:04:48;;;;;;;3.67;1.45;;;29.00;65.70;;;;;;4951529;28;20042;-83
2022/08/04 08:07:14;;;;;;;3.17;1.40;;;29.10;65.50;;;;;;4961652;28;20034;-82
2022/08/04 08:09:40;;;;;;;2.33;1.23;;;29.20;65.20;;;;;;4936777;28;20314;-82
2022/08/04 08:12:08;;;;;;;2.83;1.50;;;29.30;65.00;;;;;;4923631;28;20035;-83
2022/08/04 08:14:35;;;;;;;2.45;1.50;;;29.30;64.60;;;;;;4947989;28;20256;-83
2022/08/04 08:17:02;;;;;;;3.13;1.70;;;29.30;64.50;;;;;;4934124;28;20022;-84
2022/08/04 08:19:31;;;;;;;3.37;2.10;;;29.40;64.50;;;;;;4929137;28;20350;-83
2022/08/04 08:21:59;;;;;;;4.25;2.22;;;29.40;64.00;;;;;;4950844;28;20030;-83
2022/08/04 08:24:26;;;;;;;3.78;2.00;;;29.40;63.60;;;;;;4952893;28;20069;-83
2022/08/04 08:26:51;;;;;;;3.97;2.00;;;29.40;63.40;;;;;;4920445;28;20242;-82
2022/08/04 08:29:18;;;;;;;4.83;2.20;;;29.40;63.20;;;;;;4947450;28;20065;-82
2022/08/04 08:31:44;;;;;;;5.85;2.38;;;29.30;62.90;;;;;;4937630;28;20031;-82
2022/08/04 08:34:12;;;;;;;4.30;2.20;;;29.20;62.70;;;;;;4959860;28;20049;-83
2022/08/04 08:36:45;;;;;;;3.35;1.90;;;29.10;62.70;;;;;;4959298;28;20086;-81
2022/08/04 08:39:16;;;;;;;5.60;2.75;;;29.00;62.60;;;;;;4954637;28;20059;-82
2022/08/04 08:42:22;;;;;;;4.47;2.67;;;28.90;62.40;;;;;;4925033;28;20031;-82
2022/08/04 08:45:32;;;;;;;4.25;2.38;;;28.70;62.20;;;;;;4940856;28;20121;-81
2022/08/04 08:48:36;;;;;;;4.22;2.42;;;28.50;62.40;;;;;;4944159;28;20192;-83
2022/08/04 08:51:10;;;;;;;5.68;2.75;;;28.20;62.50;;;;;;4925720;28;20082;-83
2022/08/04 08:54:06;;;;;;;5.20;2.90;;;28.10;62.20;;;;;;4954146;28;20026;-82
2022/08/04 08:56:52;;;;;;;4.93;2.57;;;28.00;63.00;;;;;;4959453;28;20042;-83
2022/08/04 08:59:49;;;;;;;4.63;2.60;;;27.80;63.30;;;;;;4938081;28;20399;-82
2022/08/04 09:02:57;;;;;;;5.13;2.60;;;27.70;63.50;;;;;;4942659;28;20066;-82
2022/08/04 09:05:38;;;;;;;4.22;2.35;;;27.60;63.80;;;;;;4958114;28;20039;-82
2022/08/04 09:08:45;;;;;;;3.83;2.58;;;27.50;63.90;;;;;;4957888;28;20538;-82
2022/08/04 09:11:15;;;;;;;4.60;2.70;;;27.50;64.40;;;;;;4959766;28;20047;-82
2022/08/04 09:14:04;;;;;;;5.38;2.58;;;27.40;63.60;;;;;;4919665;28;20458;-83
2022/08/04 09:16:49;;;;;;;6.18;2.88;;;27.30;64.80;;;;;;4936604;28;20161;-82
2022/08/04 09:19:22;;;;;;;5.05;3.08;;;27.30;64.30;;;;;;4957188;28;20046;-82
2022/08/04 09:22:24;;;;;;;6.43;3.03;;;27.10;64.00;;;;;;4956483;28;20046;-82
2022/08/04 09:25:19;;;;;;;5.80;3.00;;;27.10;64.90;;;;;;4939751;28;20296;-82
2022/08/04 09:27:51;;;;;;;6.13;3.00;;;26.90;64.80;;;;;;4969922;28;20066;-83
2022/08/04 09:30:19;;;;;;;6.53;3.13;;;26.80;63.90;;;;;;4928759;28;20479;-83
2022/08/04 09:33:06;;;;;;;6.60;3.22;;;26.70;64.20;;;;;;4936798;28;20085;-83
2022/08/04 09:35:52;;;;;;;5.65;3.10;;;26.60;64.60;;;;;;4938496;28;21694;-83
2022/08/04 09:38:43;;;;;;;5.77;3.23;;;26.60;65.40;;;;;;4949562;28;20019;-83
2022/08/04 09:41:17;;;;;;;5.85;3.40;;;26.50;66.40;;;;;;4955208;28;20024;-83
2022/08/04 09:44:11;;;;;;;6.22;3.35;;;26.40;65.10;;;;;;4954835;28;20030;-83
2022/08/04 09:46:43;;;;;;;5.85;3.33;;;26.40;67.10;;;;;;4947936;28;20477;-84
2022/08/04 09:49:38;;;;;;;6.30;3.30;;;26.40;66.60;;;;;;4940490;28;20082;-83
2022/08/04 09:52:37;;;;;;;6.17;3.63;;;26.40;66.90;;;;;;4974093;28;20058;-83
2022/08/04 09:55:21;;;;;;;5.55;3.25;;;26.50;67.50;;;;;;4954284;28;20571;-83
2022/08/04 09:58:01;;;;;;;6.38;3.58;;;26.50;67.40;;;;;;4931218;28;20081;-83
2022/08/04 10:00:35;;;;;;;6.43;3.28;;;26.50;67.30;;;;;;4913701;28;20428;-82
2022/08/04 10:03:01;;;;;;;8.15;3.85;;;26.60;67.20;;;;;;4938052;28;20030;-83
2022/08/04 10:05:58;;;;;;;6.37;3.70;;;26.60;66.70;;;;;;4946994;28;20391;-83
2022/08/04 10:09:02;;;;;;;6.85;3.47;;;26.60;68.00;;;;;;4959181;28;20050;-83
2022/08/04 10:11:27;;;;;;;6.75;3.63;;;26.70;67.70;;;;;;4952228;28;20038;-83
2022/08/04 10:14:19;;;;;;;8.30;4.17;;;26.70;66.80;;;;;;4948461;28;20572;-83
2022/08/04 10:16:58;;;;;;;6.28;3.78;;;26.80;67.50;;;;;;4927965;28;20617;-83
2022/08/04 10:19:31;;;;;;;8.18;3.90;;;26.80;67.20;;;;;;4919616;28;20080;-83
2022/08/04 10:22:17;;;;;;;7.95;4.20;;;26.90;67.60;;;;;;4943288;28;20019;-83
2022/08/04 10:25:07;;;;;;;6.75;4.00;;;27.00;68.80;;;;;;4942420;28;20057;-83
2022/08/04 10:27:40;;;;;;;6.47;3.77;;;27.10;68.60;;;;;;4948892;28;20030;-82
2022/08/04 10:30:11;;;;;;;7.88;3.92;;;27.20;68.30;;;;;;4952999;28;20042;-83
2022/08/04 10:32:52;;;;;;;6.80;3.85;;;27.30;68.10;;;;;;4919674;28;20797;-83
2022/08/04 10:35:25;;;;;;;5.95;4.13;;;27.40;68.60;;;;;;4936872;28;20022;-83
2022/08/04 10:38:12;;;;;;;6.47;3.83;;;27.60;69.10;;;;;;4954543;28;20023;-83
2022/08/04 10:40:44;;;;;;;7.47;3.60;;;27.90;70.00;;;;;;4955357;28;20362;-83
2022/08/04 10:43:33;;;;;;;4.85;3.35;;;28.20;71.20;;;;;;4947093;28;20070;-81
2022/08/04 10:46:05;;;;;;;4.75;3.00;;;28.80;71.80;;;;;;4967672;28;20039;-82
2022/08/04 10:49:04;;;;;;;4.80;3.10;;;29.40;72.70;;;;;;4932941;28;20475;-82
2022/08/04 10:51:41;;;;;;;3.20;2.22;;;30.00;70.60;;;;;;4922158;28;20423;-83
2022/08/04 10:54:30;;;;;;;2.70;2.20;;;30.60;69.40;;;;;;4971966;28;20394;-83
2022/08/04 10:57:06;;;;;;;2.75;1.88;;;31.10;67.20;;;;;;4953617;28;20383;-83
2022/08/04 10:59:55;;;;;;;2.38;1.80;;;31.50;68.00;;;;;;4952489;28;20053;-82
2022/08/04 11:02:35;;;;;;;3.42;2.40;;;32.00;67.10;;;;;;4921335;28;20050;-83
2022/08/04 11:05:26;;;;;;;2.72;2.15;;;32.60;68.10;;;;;;4941331;28;20407;-82
2022/08/04 11:07:58;;;;;;;3.37;2.00;;;33.20;64.60;;;;;;4943908;28;20629;-83
2022/08/04 11:10:29;;;;;;;2.20;1.95;;;33.50;64.80;;;;;;4953122;28;20023;-83
2022/08/04 11:13:04;;;;;;;3.75;2.10;;;33.80;62.70;;;;;;4974757;28;20022;-83
2022/08/04 11:15:37;;;;;;;2.30;2.05;;;34.10;61.70;;;;;;4929732;28;20074;-83
2022/08/04 11:18:13;;;;;;;2.53;2.20;;;34.40;62.60;;;;;;4948918;28;20102;-83
2022/08/04 11:20:51;;;;;;;2.70;2.10;;;34.80;60.80;;;;;;4949526;28;20019;-83
2022/08/04 11:23:22;;;;;;;3.38;1.98;;;35.10;59.30;;;;;;4941869;28;20023;-84
2022/08/04 11:25:48;;;;;;;3.20;1.80;;;35.30;58.70;;;;;;4959276;28;20042;-83
2022/08/04 11:28:52;;;;;;;2.75;2.05;;;35.30;57.60;;;;;;4944886;28;20046;-83
2022/08/04 11:31:34;;;;;;;3.85;1.80;;;35.20;55.20;;;;;;4941393;28;20026;-83
2022/08/04 11:34:24;;;;;;;3.20;1.90;;;35.10;54.70;;;;;;4938182;28;20518;-83
2022/08/04 11:37:10;;;;;;;3.20;1.88;;;34.80;53.70;;;;;;4931219;28;20028;-83
2022/08/04 11:39:43;;;;;;;3.17;1.67;;;34.50;53.90;;;;;;4944404;28;20022;-83
2022/08/04 11:42:26;;;;;;;2.10;1.63;;;34.20;53.60;;;;;;4952377;28;20558;-83
2022/08/04 11:44:59;;;;;;;2.70;1.60;;;33.80;54.20;;;;;;4976089;28;20109;-83
2022/08/04 11:47:29;;;;;;;2.47;1.50;;;33.50;53.70;;;;;;4954336;28;20499;-83
2022/08/04 11:50:07;;;;;;;3.22;1.70;;;33.20;53.90;;;;;;4941898;28;20057;-83
2022/08/04 11:52:36;;;;;;;3.28;1.65;;;32.90;53.90;;;;;;4960007;28;20450;-83
2022/08/04 11:55:07;;;;;;;3.58;1.90;;;32.70;54.40;;;;;;4952514;28;20047;-83
2022/08/04 11:57:34;;;;;;;1.90;1.70;;;32.50;54.60;;;;;;4949224;28;20590;-83
2022/08/04 12:00:04;;;;;;;4.60;1.90;;;32.40;55.00;;;;;;4961039;28;20553;-83
2022/08/04 12:02:46;;;;;;;2.78;1.90;;;32.30;55.30;;;;;;4947913;28;20504;-83
2022/08/04 12:05:12;;;;;;;4.55;1.90;;;32.30;55.50;;;;;;4948997;28;20443;-83
2022/08/04 12:07:50;;;;;;;3.03;1.90;;;32.40;57.00;;;;;;4938339;28;20034;-83
2022/08/04 12:10:34;;;;;;;4.13;2.20;;;32.60;57.90;;;;;;4977681;28;20073;-83
2022/08/04 12:13:25;;;;;;;4.37;2.40;;;32.90;58.10;;;;;;4959864;28;20593;-83
2022/08/04 12:16:02;;;;;;;4.00;2.28;;;33.30;56.50;;;;;;4948882;28;20491;-82
2022/08/04 12:19:02;;;;;;;2.97;2.22;;;33.60;56.10;;;;;;4969304;28;20737;-83
2022/08/04 12:21:36;;;;;;;3.95;1.95;;;33.80;55.80;;;;;;4918397;28;20126;-83
2022/08/04 12:24:15;;;;;;;4.95;2.17;;;34.10;55.90;;;;;;4930848;28;20153;-83
2022/08/04 12:26:50;;;;;;;5.90;2.63;;;34.40;55.80;;;;;;4951348;28;20050;-83
2022/08/04 12:29:18;;;;;;;3.78;2.60;;;34.80;56.50;;;;;;4958142;28;20058;-83
2022/08/04 12:31:52;;;;;;;4.15;2.63;;;35.20;56.40;;;;;;4958424;28;20386;-84
2022/08/04 12:34:40;;;;;;;4.10;2.35;;;35.50;54.70;;;;;;4931132;28;20026;-83
2022/08/04 12:37:36;;;;;;;3.45;2.25;;;36.00;53.70;;;;;;4952860;28;20332;-82
2022/08/04 12:40:09;;;;;;;3.60;2.40;;;36.30;53.10;;;;;;4949356;28;20156;-82
2022/08/04 12:42:57;;;;;;;3.35;2.50;;;36.70;53.40;;;;;;4949893;28;20030;-83
2022/08/04 12:45:24;;;;;;;3.45;2.50;;;37.00;52.40;;;;;;4955831;28;20030;-84
2022/08/04 12:47:52;;;;;;;3.65;2.60;;;37.40;52.60;;;;;;4955030;28;20023;-82
2022/08/04 12:50:19;;;;;;;3.20;2.58;;;37.70;51.90;;;;;;4925924;28;20045;-83
2022/08/04 12:52:49;;;;;;;3.80;2.37;;;37.90;51.30;;;;;;4935684;28;20077;-83
2022/08/04 12:55:17;;;;;;;3.30;2.40;;;38.20;50.40;;;;;;4951576;28;20034;-83
2022/08/04 12:57:44;;;;;;;2.88;2.45;;;38.40;49.80;;;;;;4954974;28;20030;-83
2022/08/04 13:00:10;;;;;;;3.55;2.20;;;38.50;49.10;;;;;;4960751;28;20066;-82
2022/08/04 13:02:45;;;;;;;3.85;2.30;;;38.60;48.60;;;;;;4958159;28;20043;-83
2022/08/04 13:05:14;;;;;;;2.97;2.23;;;38.80;47.20;;;;;;4923996;28;20035;-83
2022/08/04 13:07:44;;;;;;;2.13;1.92;;;38.90;47.60;;;;;;4948713;28;20033;-83
2022/08/04 13:10:15;;;;;;;3.42;2.65;;;39.00;47.00;;;;;;4971115;28;20042;-83
2022/08/04 13:12:43;;;;;;;5.45;2.63;;;39.10;46.30;;;;;;4949122;28;20089;-82
2022/08/04 13:15:19;;;;;;;3.65;2.70;;;39.30;47.00;;;;;;4943920;28;20034;-83
2022/08/04 13:18:00;;;;;;;2.73;2.53;;;39.40;45.20;;;;;;4949088;28;20038;-84
2022/08/04 13:20:33;;;;;;;2.47;2.28;;;39.40;44.70;;;;;;4962746;28;20034;-83
2022/08/04 13:23:03;;;;;;;3.15;2.10;;;39.40;43.90;;;;;;4935248;28;20097;-83
2022/08/04 13:25:30;;;;;;;2.53;1.98;;;39.30;43.40;;;;;;4951674;28;20448;-83
2022/08/04 13:27:58;;;;;;;2.65;1.83;;;39.10;43.60;;;;;;4955960;28;20278;-83
2022/08/04 13:30:26;;;;;;;3.17;1.80;;;38.90;43.60;;;;;;4956137;28;20251;-83
2022/08/04 13:32:58;;;;;;;3.05;1.63;;;38.80;43.90;;;;;;4948278;28;20031;-83
2022/08/04 13:35:25;;;;;;;2.17;1.80;;;38.80;43.00;;;;;;4957915;28;20023;-82
2022/08/04 13:37:53;;;;;;;2.90;2.08;;;38.80;43.70;;;;;;4936373;28;20283;-82
2022/08/04 13:40:22;;;;;;;3.05;1.80;;;38.80;43.60;;;;;;4951780;28;20031;-83